createdAt,value
2023-05-21T00:01:55.100Z,93775.69
2023-05-21T00:04:23.972Z,93776.34
2023-05-21T00:06:53.518Z,93769.31
2023-05-21T00:09:22.335Z,93775.38
2023-05-21T00:11:50.897Z,93766.41
2023-05-21T00:14:19.734Z,93764.75
2023-05-21T00:16:48.445Z,93769.09
2023-05-21T00:19:17.162Z,93762.56
2023-05-21T00:21:47.284Z,93754.63
2023-05-21T00:24:15.826Z,93762.31
2023-05-21T00:26:44.345Z,93762.25
2023-05-21T00:29:12.904Z,93764.81
2023-05-21T00:31:41.484Z,93761.63
2023-05-21T00:34:10.049Z,93761.94
2023-05-21T00:36:38.634Z,93757.19
2023-05-21T00:39:07.205Z,93752.56
2023-05-21T00:41:36.634Z,93760.06
2023-05-21T00:44:05.302Z,93761.63
2023-05-21T00:46:34.218Z,93768.69
2023-05-21T00:49:03.538Z,93763.16
2023-05-21T00:51:32.022Z,93749.47
2023-05-21T00:54:00.840Z,93761.94
2023-05-21T00:56:29.804Z,93757.66
2023-05-21T00:58:59.466Z,93765.81
2023-05-21T01:01:28.154Z,93758.63
2023-05-21T01:03:59.103Z,93764.38
2023-05-21T01:06:27.933Z,93757.66
2023-05-21T01:08:57.636Z,93767.13
2023-05-21T01:11:43.054Z,93768.47
2023-05-21T01:14:14.021Z,93762.28
2023-05-21T01:16:45.403Z,93766.03
2023-05-21T01:19:26.115Z,93764.94
2023-05-21T01:22:02.028Z,93760.31
2023-05-21T01:24:30.398Z,93760.09
2023-05-21T01:27:00.078Z,93754.13
2023-05-21T01:29:29.064Z,93758.31
2023-05-21T01:32:24.458Z,93758.75
2023-05-21T01:35:03.877Z,93749.88
2023-05-21T01:37:57.037Z,93748.22
2023-05-21T01:40:59.815Z,93746.41
2023-05-21T01:43:31.031Z,93746.44
2023-05-21T01:46:01.722Z,93760.53
2023-05-21T01:48:32.092Z,93746.53
2023-05-21T01:51:05.127Z,93750.47
2023-05-21T01:53:33.929Z,93746.56
2023-05-21T01:56:04.069Z,93752.69
2023-05-21T01:58:32.647Z,93758.38
2023-05-21T02:01:01.208Z,93752.94
2023-05-21T02:03:32.270Z,93761.91
2023-05-21T02:06:01.197Z,93757.78
2023-05-21T02:08:30.546Z,93754.88
2023-05-21T02:10:59.085Z,93759.31
2023-05-21T02:13:27.735Z,93757.63
2023-05-21T02:15:57.478Z,93756.16
2023-05-21T02:18:27.737Z,93766.88
2023-05-21T02:20:56.170Z,93754.56
2023-05-21T02:23:24.684Z,93757.69
2023-05-21T02:25:53.399Z,93763.75
2023-05-21T02:28:22.701Z,93755.72
2023-05-21T02:30:51.402Z,93763.03
2023-05-21T02:33:21.191Z,93760.25
2023-05-21T02:35:50.167Z,93755.31
2023-05-21T02:38:20.801Z,93746.38
2023-05-21T02:40:49.333Z,93745.13
2023-05-21T02:43:17.980Z,93743.44
2023-05-21T02:45:46.549Z,93747.47
2023-05-21T02:48:15.161Z,93751.38
2023-05-21T02:50:43.793Z,93741.78
2023-05-21T02:53:12.167Z,93754.66
2023-05-21T02:55:40.709Z,93754.84
2023-05-21T02:58:09.300Z,93752.69
2023-05-21T03:00:37.654Z,93746.16
2023-05-21T03:03:06.453Z,93753.63
2023-05-21T03:05:35.337Z,93754.06
2023-05-21T03:08:04.903Z,93757.31
2023-05-21T03:10:33.563Z,93757.31
2023-05-21T03:13:02.569Z,93765.38
2023-05-21T03:15:34.789Z,93759.03
2023-05-21T03:18:03.719Z,93763.66
2023-05-21T03:20:32.321Z,93769.09
2023-05-21T03:23:01.727Z,93760.88
2023-05-21T03:25:30.354Z,93763.38
2023-05-21T03:27:59.130Z,93770.03
2023-05-21T03:30:27.789Z,93774.53
2023-05-21T03:32:57.704Z,93768.03
2023-05-21T03:35:26.303Z,93770.81
2023-05-21T03:37:54.864Z,93776.09
2023-05-21T03:40:23.393Z,93782.75
2023-05-21T03:42:52.160Z,93780.75
2023-05-21T03:45:20.668Z,93783.38
2023-05-21T03:47:50.094Z,93786.16
2023-05-21T03:50:18.699Z,93791.25
2023-05-21T03:52:47.350Z,93792.63
2023-05-21T03:55:15.268Z,93794.47
2023-05-21T03:57:44.243Z,93786.91
2023-05-21T04:00:13.136Z,93788.44
2023-05-21T04:02:41.668Z,93789.31
2023-05-21T04:05:10.919Z,93783.44
2023-05-21T04:07:39.822Z,93787.91
2023-05-21T04:10:08.768Z,93784.50
2023-05-21T04:12:36.689Z,93783.72
2023-05-21T04:15:05.623Z,93783.72
2023-05-21T04:17:34.595Z,93784.59
2023-05-21T04:20:03.178Z,93781.03
2023-05-21T04:22:31.742Z,93777.91
2023-05-21T04:25:00.845Z,93780.66
2023-05-21T04:27:29.219Z,93783.91
2023-05-21T04:29:59.421Z,93792.09
2023-05-21T04:32:29.794Z,93788.34
2023-05-21T04:34:58.755Z,93780.72
2023-05-21T04:37:27.294Z,93784.72
2023-05-21T04:39:58.809Z,93793.22
2023-05-21T04:42:27.633Z,93783.59
2023-05-21T04:44:56.806Z,93788.97
2023-05-21T04:47:25.404Z,93781.88
2023-05-21T04:49:55.070Z,93779.00
2023-05-21T04:52:26.365Z,93782.81
2023-05-21T04:54:55.464Z,93783.91
2023-05-21T04:57:25.839Z,93774.03
2023-05-21T04:59:54.316Z,93784.03
2023-05-21T05:02:22.807Z,93783.53
2023-05-21T05:04:51.432Z,93784.03
2023-05-21T05:07:20.216Z,93779.00
2023-05-21T05:09:48.690Z,93781.63
2023-05-21T05:12:17.280Z,93782.00
2023-05-21T05:14:45.876Z,93771.13
2023-05-21T05:17:17.633Z,93773.88
2023-05-21T05:19:46.098Z,93777.94
2023-05-21T05:22:14.645Z,93774.47
2023-05-21T05:24:43.220Z,93777.72
2023-05-21T05:27:11.831Z,93774.31
2023-05-21T05:29:40.199Z,93774.00
2023-05-21T05:32:09.335Z,93764.09
2023-05-21T05:34:38.559Z,93763.59
2023-05-21T05:37:07.225Z,93755.75
2023-05-21T05:39:35.618Z,93748.56
2023-05-21T05:42:04.760Z,93747.50
2023-05-21T05:44:33.302Z,93751.47
2023-05-21T05:47:02.051Z,93756.53
2023-05-21T05:49:30.671Z,93751.66
2023-05-21T05:51:59.253Z,93750.22
2023-05-21T05:54:27.758Z,93750.19
2023-05-21T05:56:56.311Z,93748.25
2023-05-21T05:59:24.879Z,93740.00
2023-05-21T06:01:53.362Z,93746.53
2023-05-21T06:04:21.926Z,93746.63
2023-05-21T06:06:50.730Z,93743.91
2023-05-21T06:09:19.529Z,93745.34
2023-05-21T06:11:48.188Z,93740.69
2023-05-21T06:14:16.768Z,93737.50
2023-05-21T06:16:44.665Z,93752.84
2023-05-21T06:19:13.450Z,93755.88
2023-05-21T06:21:42.278Z,93764.88
2023-05-21T06:24:10.667Z,93775.13
2023-05-21T06:26:39.291Z,93786.13
2023-05-21T06:29:07.528Z,93794.69
2023-05-21T06:31:36.377Z,93810.91
2023-05-21T06:34:05.515Z,93803.16
2023-05-21T06:36:34.220Z,93800.84
2023-05-21T06:39:02.877Z,93791.34
2023-05-21T06:41:31.496Z,93787.88
2023-05-21T06:44:00.036Z,93782.00
2023-05-21T06:46:28.718Z,93788.09
2023-05-21T06:48:57.358Z,93789.16
2023-05-21T06:51:25.852Z,93779.97
2023-05-21T06:53:54.506Z,93775.22
2023-05-21T06:56:23.324Z,93766.88
2023-05-21T06:58:52.093Z,93773.53
2023-05-21T07:01:21.012Z,93778.75
2023-05-21T07:03:50.172Z,93774.03
2023-05-21T07:06:19.513Z,93763.38
2023-05-21T07:08:49.416Z,93765.44
2023-05-21T07:11:18.019Z,93766.13
2023-05-21T07:13:46.747Z,93776.75
2023-05-21T07:16:15.368Z,93775.44
2023-05-21T07:18:43.964Z,93779.78
2023-05-21T07:21:12.656Z,93783.66
2023-05-21T07:23:41.534Z,93782.03
2023-05-21T07:26:11.876Z,93783.28
2023-05-21T07:28:39.871Z,93776.88
2023-05-21T07:31:09.563Z,93781.16
2023-05-21T07:33:37.937Z,93775.56
2023-05-21T07:36:07.033Z,93770.75
2023-05-21T07:38:36.009Z,93774.28
2023-05-21T07:41:04.517Z,93768.16
2023-05-21T07:43:33.558Z,93766.91
2023-05-21T07:46:02.188Z,93772.84
2023-05-21T07:48:31.419Z,93772.75
2023-05-21T07:51:01.388Z,93776.63
2023-05-21T07:53:33.607Z,93778.28
2023-05-21T07:56:02.305Z,93786.31
2023-05-21T07:58:32.326Z,93777.78
2023-05-21T08:01:00.905Z,93781.94
2023-05-21T08:03:32.248Z,93784.09
2023-05-21T08:06:01.433Z,93784.09
2023-05-21T08:08:30.210Z,93784.38
2023-05-21T08:10:58.982Z,93788.06
2023-05-21T08:13:27.632Z,93785.59
2023-05-21T08:15:56.192Z,93774.63
2023-05-21T08:18:25.003Z,93784.28
2023-05-21T08:20:53.696Z,93773.97
2023-05-21T08:23:21.807Z,93754.47
2023-05-21T08:25:50.400Z,93756.31
2023-05-21T08:28:19.065Z,93760.06
2023-05-21T08:30:47.090Z,93755.47
2023-05-21T08:33:16.234Z,93772.63
2023-05-21T08:35:44.803Z,93774.69
2023-05-21T08:38:13.435Z,93756.66
2023-05-21T08:40:42.767Z,93755.88
2023-05-21T08:43:15.897Z,93739.56
2023-05-21T08:45:49.174Z,93731.44
2023-05-21T08:48:18.267Z,93731.59
2023-05-21T08:50:47.795Z,93742.81
2023-05-21T08:53:27.326Z,93741.91
2023-05-21T08:55:58.602Z,93755.53
2023-05-21T08:58:27.311Z,93744.16
2023-05-21T09:00:57.638Z,93741.69
2023-05-21T09:03:26.439Z,93739.50
2023-05-21T09:05:56.506Z,93718.78
2023-05-21T09:08:36.630Z,93718.78
2023-05-21T09:11:05.238Z,93723.09
2023-05-21T09:13:36.259Z,93727.41
2023-05-21T09:16:06.852Z,93722.25
2023-05-21T09:18:35.474Z,93707.47
2023-05-21T09:21:32.720Z,93707.50
2023-05-21T09:24:03.302Z,93714.88
2023-05-21T09:26:31.939Z,93705.53
2023-05-21T09:29:02.172Z,93695.81
2023-05-21T09:31:31.695Z,93696.88
2023-05-21T09:34:00.255Z,93694.75
2023-05-21T09:36:30.635Z,93705.13
2023-05-21T09:39:01.203Z,93716.81
2023-05-21T09:41:36.597Z,93720.91
2023-05-21T09:44:05.721Z,93732.47
2023-05-21T09:46:42.656Z,93733.31
2023-05-21T09:49:28.093Z,93722.59
2023-05-21T09:51:58.473Z,93727.13
2023-05-21T09:54:32.722Z,93736.53
2023-05-21T09:57:04.258Z,93753.28
2023-05-21T09:59:42.373Z,93754.25
2023-05-21T10:02:31.305Z,93749.19
2023-05-21T10:05:00.251Z,93728.91
2023-05-21T10:07:29.756Z,93726.38
2023-05-21T10:09:59.422Z,93732.81
2023-05-21T10:12:32.197Z,93728.44
2023-05-21T10:15:04.832Z,93714.88
2023-05-21T10:17:34.076Z,93720.53
2023-05-21T10:20:04.336Z,93709.00
2023-05-21T10:22:33.119Z,93698.97
2023-05-21T10:25:04.948Z,93695.38
2023-05-21T10:27:34.832Z,93703.69
2023-05-21T10:30:05.765Z,93689.00
2023-05-21T10:32:35.107Z,93680.38
2023-05-21T10:35:03.850Z,93675.16
2023-05-21T10:37:32.534Z,93667.44
2023-05-21T10:40:01.037Z,93675.34
2023-05-21T10:42:32.608Z,93673.34
2023-05-21T10:45:25.845Z,93674.06
2023-05-21T10:48:13.746Z,93666.91
2023-05-21T10:51:13.373Z,93659.25
2023-05-21T10:53:55.668Z,93664.00
2023-05-21T10:56:31.172Z,93670.88
2023-05-21T10:59:32.832Z,93656.41
2023-05-21T11:02:03.002Z,93654.84
2023-05-21T11:04:31.126Z,93656.13
2023-05-21T11:07:03.803Z,93649.13
2023-05-21T11:09:32.246Z,93656.91
2023-05-21T11:12:02.167Z,93665.78
2023-05-21T11:14:39.652Z,93658.34
2023-05-21T11:17:15.394Z,93662.31
2023-05-21T11:19:52.150Z,93657.09
2023-05-21T11:22:28.800Z,93658.47
2023-05-21T11:25:02.430Z,93657.66
2023-05-21T11:27:43.311Z,93663.50
2023-05-21T11:30:17.051Z,93662.44
2023-05-21T11:33:12.490Z,93659.06
2023-05-21T11:36:01.534Z,93668.13
2023-05-21T11:38:31.759Z,93671.50
2023-05-21T11:41:05.439Z,93648.22
2023-05-21T11:43:34.092Z,93654.00
2023-05-21T11:46:02.994Z,93661.78
2023-05-21T11:48:33.638Z,93659.22
2023-05-21T11:51:03.527Z,93652.00
2023-05-21T11:53:32.224Z,93647.34
2023-05-21T11:56:03.582Z,93643.75
2023-05-21T11:58:32.911Z,93642.47
2023-05-21T12:01:01.466Z,93642.22
2023-05-21T12:03:31.675Z,93639.44
2023-05-21T12:06:07.972Z,93635.53
2023-05-21T12:08:37.210Z,93638.13
2023-05-21T12:11:05.937Z,93643.84
2023-05-21T12:13:34.620Z,93645.97
2023-05-21T12:16:06.676Z,93641.53
2023-05-21T12:18:35.603Z,93641.78
2023-05-21T12:21:04.178Z,93633.47
2023-05-21T12:23:33.160Z,93637.41
2023-05-21T12:26:01.733Z,93635.53
2023-05-21T12:28:30.601Z,93630.31
2023-05-21T12:30:59.225Z,93626.16
2023-05-21T12:33:37.538Z,93627.88
2023-05-21T12:36:06.712Z,93621.81
2023-05-21T12:38:35.412Z,93628.50
2023-05-21T12:41:07.851Z,93627.41
2023-05-21T12:43:36.521Z,93637.97
2023-05-21T12:46:05.166Z,93633.44
2023-05-21T12:48:33.589Z,93635.22
2023-05-21T12:51:02.141Z,93617.66
2023-05-21T12:53:39.484Z,93622.56
2023-05-21T12:56:15.424Z,93621.72
2023-05-21T12:58:44.704Z,93619.00
2023-05-21T13:01:13.969Z,93616.06
2023-05-21T13:03:45.666Z,93623.38
2023-05-21T13:06:15.515Z,93616.41
2023-05-21T13:08:43.985Z,93613.19
2023-05-21T13:11:12.523Z,93614.19
2023-05-21T13:13:41.118Z,93611.00
2023-05-21T13:16:09.765Z,93615.22
2023-05-21T13:18:38.307Z,93617.44
2023-05-21T13:21:07.179Z,93614.53
2023-05-21T13:23:35.668Z,93614.38
2023-05-21T13:26:04.178Z,93611.94
2023-05-21T13:28:32.849Z,93606.13
2023-05-21T13:31:01.364Z,93610.59
2023-05-21T13:33:30.002Z,93613.91
2023-05-21T13:35:58.624Z,93612.50
2023-05-21T13:38:27.261Z,93619.13
2023-05-21T13:40:55.828Z,93626.25
2023-05-21T13:43:24.422Z,93624.34
2023-05-21T13:45:53.222Z,93629.63
2023-05-21T13:48:21.907Z,93635.31
2023-05-21T13:50:50.390Z,93650.16
2023-05-21T13:53:18.904Z,93660.44
2023-05-21T13:55:47.468Z,93645.50
2023-05-21T13:58:15.860Z,93639.16
2023-05-21T14:00:44.464Z,93650.31
2023-05-21T14:03:13.517Z,93648.50
2023-05-21T14:05:42.620Z,93657.84
2023-05-21T14:08:11.198Z,93653.88
2023-05-21T14:10:39.749Z,93648.94
2023-05-21T14:13:18.884Z,93643.09
2023-05-21T14:15:49.769Z,93637.97
2023-05-21T14:18:18.396Z,93645.69
2023-05-21T14:20:46.928Z,93637.25
2023-05-21T14:23:15.572Z,93627.38
2023-05-21T14:25:44.296Z,93625.84
2023-05-21T14:28:12.878Z,93636.19
2023-05-21T14:30:41.486Z,93632.41
2023-05-21T14:33:09.952Z,93634.91
2023-05-21T14:35:38.705Z,93626.31
2023-05-21T14:38:07.454Z,93634.47
2023-05-21T14:40:36.149Z,93632.72
2023-05-21T14:43:04.674Z,93635.25
2023-05-21T14:45:36.731Z,93630.00
2023-05-21T14:48:09.721Z,93627.91
2023-05-21T14:50:38.593Z,93640.44
2023-05-21T14:53:12.408Z,93635.66
2023-05-21T14:55:41.249Z,93636.25
2023-05-21T14:58:10.163Z,93632.28
2023-05-21T15:00:39.583Z,93625.00
2023-05-21T15:03:08.557Z,93623.25
2023-05-21T15:05:37.543Z,93624.97
2023-05-21T15:08:07.281Z,93629.16
2023-05-21T15:10:35.902Z,93620.81
2023-05-21T15:13:04.595Z,93612.00
2023-05-21T15:15:33.126Z,93611.28
2023-05-21T15:18:01.788Z,93617.41
2023-05-21T15:20:30.461Z,93613.63
2023-05-21T15:25:33.624Z,93602.25
2023-05-21T15:28:02.241Z,93607.75
2023-05-21T15:30:30.621Z,93594.38
2023-05-21T15:32:59.165Z,93606.50
2023-05-21T15:35:27.886Z,93593.59
2023-05-21T15:37:56.488Z,93596.59
2023-05-21T15:40:27.098Z,93596.28
2023-05-21T15:42:56.051Z,93591.69
2023-05-21T15:45:25.736Z,93592.19
2023-05-21T15:47:54.315Z,93595.56
2023-05-21T15:50:22.754Z,93585.53
2023-05-21T15:52:53.352Z,93586.91
2023-05-21T15:55:22.346Z,93578.41
2023-05-21T15:57:50.934Z,93579.41
2023-05-21T16:00:19.831Z,93580.59
2023-05-21T16:02:48.688Z,93590.19
2023-05-21T16:05:17.816Z,93581.19
2023-05-21T16:07:46.897Z,93579.72
2023-05-21T16:10:15.446Z,93573.88
2023-05-21T16:12:43.458Z,93574.50
2023-05-21T16:15:11.686Z,93579.25
2023-05-21T16:17:39.678Z,93573.31
2023-05-21T16:20:08.549Z,93571.41
2023-05-21T16:22:36.515Z,93570.41
2023-05-21T16:25:05.279Z,93567.13
2023-05-21T16:27:33.941Z,93571.06
2023-05-21T16:30:02.527Z,93567.22
2023-05-21T16:32:30.943Z,93565.78
2023-05-21T16:34:59.554Z,93561.84
2023-05-21T16:37:28.685Z,93557.44
2023-05-21T16:39:56.645Z,93561.94
2023-05-21T16:42:25.264Z,93555.44
2023-05-21T16:44:53.791Z,93552.31
2023-05-21T16:47:22.144Z,93550.63
2023-05-21T16:50:14.478Z,93546.22
2023-05-21T16:52:45.265Z,93547.66
2023-05-21T16:55:13.870Z,93548.63
2023-05-21T16:57:42.296Z,93542.47
2023-05-21T17:00:11.173Z,93543.09
2023-05-21T17:02:40.285Z,93534.88
2023-05-21T17:05:09.687Z,93531.75
2023-05-21T17:07:41.372Z,93530.34
2023-05-21T17:10:10.621Z,93539.78
2023-05-21T17:12:39.173Z,93527.94
2023-05-21T17:15:07.850Z,93529.53
2023-05-21T17:17:36.761Z,93528.91
2023-05-21T17:20:05.669Z,93516.00
2023-05-21T17:22:34.242Z,93524.13
2023-05-21T17:25:02.878Z,93514.69
2023-05-21T17:27:31.378Z,93512.56
2023-05-21T17:29:59.803Z,93512.38
2023-05-21T17:32:28.392Z,93508.69
2023-05-21T17:34:56.954Z,93504.28
2023-05-21T17:37:25.238Z,93500.78
2023-05-21T17:39:53.152Z,93505.25
2023-05-21T17:42:21.190Z,93500.94
2023-05-21T17:44:49.170Z,93497.47
2023-05-21T17:47:17.111Z,93497.09
2023-05-21T17:49:45.130Z,93492.72
2023-05-21T17:52:13.499Z,93499.13
2023-05-21T17:54:42.382Z,93484.75
2023-05-21T17:57:10.971Z,93480.25
2023-05-21T17:59:41.553Z,93486.38
2023-05-21T18:02:10.575Z,93472.50
2023-05-21T18:04:39.421Z,93476.78
2023-05-21T18:07:08.570Z,93469.66
2023-05-21T18:09:37.182Z,93472.66
2023-05-21T18:12:07.033Z,93475.53
2023-05-21T18:14:35.721Z,93467.38
2023-05-21T18:17:06.388Z,93459.16
2023-05-21T18:19:35.216Z,93452.88
2023-05-21T18:22:21.730Z,93453.91
2023-05-21T18:24:51.297Z,93449.66
2023-05-21T18:27:19.830Z,93458.47
2023-05-21T18:29:50.361Z,93462.75
2023-05-21T18:32:18.914Z,93465.03
2023-05-21T18:34:47.844Z,93461.75
2023-05-21T18:37:16.376Z,93468.78
2023-05-21T18:39:44.944Z,93464.56
2023-05-21T18:42:14.351Z,93452.22
2023-05-21T18:44:42.903Z,93453.66
2023-05-21T18:47:11.403Z,93460.50
2023-05-21T18:49:40.490Z,93448.41
2023-05-21T18:52:15.114Z,93445.44
2023-05-21T18:57:48.879Z,93431.13
2023-05-21T19:00:30.661Z,93432.16
2023-05-21T19:03:00.243Z,93432.97
2023-05-21T19:05:29.608Z,93431.91
2023-05-21T19:07:59.504Z,93422.66
2023-05-21T19:10:28.348Z,93423.41
2023-05-21T19:12:56.906Z,93411.19
2023-05-21T19:15:25.496Z,93415.84
2023-05-21T19:17:54.058Z,93411.72
2023-05-21T19:20:27.860Z,93404.81
2023-05-21T19:22:56.730Z,93398.16
2023-05-21T19:25:25.534Z,93400.63
2023-05-21T19:27:54.205Z,93403.75
2023-05-21T19:30:22.730Z,93398.25
2023-05-21T19:32:51.413Z,93394.28
2023-05-21T19:35:20.066Z,93385.28
2023-05-21T19:37:48.749Z,93382.31
2023-05-21T19:40:18.906Z,93375.81
2023-05-21T19:42:47.438Z,93371.88
2023-05-21T19:45:16.896Z,93364.31
2023-05-21T19:47:45.563Z,93370.81
2023-05-21T19:50:14.271Z,93363.81
2023-05-21T19:52:42.868Z,93361.66
2023-05-21T19:55:11.704Z,93353.31
2023-05-21T19:57:40.982Z,93354.84
2023-05-21T20:00:11.582Z,93348.03
2023-05-21T20:02:40.207Z,93349.97
2023-05-21T20:05:10.046Z,93349.78
2023-05-21T20:07:39.157Z,93339.25
2023-05-21T20:10:08.764Z,93337.59
2023-05-21T20:12:37.879Z,93339.31
2023-05-21T20:15:07.960Z,93333.56
2023-05-21T20:17:37.285Z,93332.84
2023-05-21T20:20:12.364Z,93324.50
2023-05-21T20:22:40.700Z,93336.09
2023-05-21T20:25:10.109Z,93320.88
2023-05-21T20:27:40.343Z,93324.19
2023-05-21T20:30:12.023Z,93315.91
2023-05-21T20:32:40.713Z,93321.44
2023-05-21T20:35:12.729Z,93316.78
2023-05-21T20:37:41.302Z,93314.50
2023-05-21T20:40:12.158Z,93312.63
2023-05-21T20:42:42.966Z,93314.38
2023-05-21T20:45:14.106Z,93315.88
2023-05-21T20:47:43.858Z,93302.97
2023-05-21T20:50:13.368Z,93312.16
2023-05-21T20:52:42.361Z,93309.78
2023-05-21T20:55:14.049Z,93302.97
2023-05-21T20:57:42.768Z,93298.34
2023-05-21T21:00:14.791Z,93296.84
2023-05-21T21:02:43.249Z,93296.97
2023-05-21T21:05:12.136Z,93286.16
2023-05-21T21:07:41.322Z,93277.75
2023-05-21T21:10:10.403Z,93285.66
2023-05-21T21:12:39.180Z,93281.63
2023-05-21T21:15:08.248Z,93275.09
2023-05-21T21:17:36.917Z,93274.00
2023-05-21T21:20:07.562Z,93277.78
2023-05-21T21:22:36.051Z,93275.78
2023-05-21T21:25:04.656Z,93274.81
2023-05-21T21:27:33.275Z,93266.59
2023-05-21T21:30:01.821Z,93261.00
2023-05-21T21:32:30.416Z,93263.06
2023-05-21T21:34:58.975Z,93253.66
2023-05-21T21:37:28.351Z,93248.38
2023-05-21T21:39:58.005Z,93245.31
2023-05-21T21:42:26.582Z,93233.25
2023-05-21T21:44:55.036Z,93237.50
2023-05-21T21:47:23.730Z,93237.56
2023-05-21T21:49:52.188Z,93236.44
2023-05-21T21:52:21.937Z,93229.53
2023-05-21T21:54:50.515Z,93217.44
2023-05-21T21:57:19.111Z,93210.97
2023-05-21T21:59:47.599Z,93220.91
2023-05-21T22:02:16.274Z,93219.69
2023-05-21T22:04:46.360Z,93205.31
2023-05-21T22:07:18.300Z,93203.34
2023-05-21T22:09:47.358Z,93205.03
2023-05-21T22:12:16.018Z,93203.88
2023-05-21T22:14:45.031Z,93195.53
2023-05-21T22:17:13.633Z,93192.47
2023-05-21T22:19:41.639Z,93186.78
2023-05-21T22:22:11.240Z,93180.03
2023-05-21T22:24:39.984Z,93180.34
2023-05-21T22:27:08.800Z,93180.41
2023-05-21T22:29:37.567Z,93172.78
2023-05-21T22:32:06.422Z,93176.94
2023-05-21T22:34:34.869Z,93176.63
2023-05-21T22:37:03.455Z,93173.22
2023-05-21T22:39:32.122Z,93162.19
2023-05-21T22:42:01.038Z,93156.88
2023-05-21T22:44:29.797Z,93158.34
2023-05-21T22:47:01.530Z,93161.81
2023-05-21T22:49:31.440Z,93146.94
2023-05-21T22:52:06.386Z,93146.13
2023-05-21T22:54:34.938Z,93135.84
2023-05-21T22:57:03.850Z,93140.03
2023-05-21T22:59:34.552Z,93139.31
2023-05-21T23:02:03.345Z,93122.53
2023-05-21T23:04:43.855Z,93124.47
2023-05-21T23:07:14.030Z,93114.91
2023-05-21T23:09:42.685Z,93123.31
2023-05-21T23:12:11.626Z,93110.34
2023-05-21T23:14:40.191Z,93097.75
2023-05-21T23:17:08.823Z,93092.06
2023-05-21T23:19:37.759Z,93092.44
2023-05-21T23:22:06.695Z,93094.72
2023-05-21T23:24:37.559Z,93089.78
2023-05-21T23:27:06.442Z,93089.75
2023-05-21T23:29:35.063Z,93085.19
2023-05-21T23:32:06.649Z,93077.97
2023-05-21T23:34:35.290Z,93082.91
2023-05-21T23:37:03.832Z,93086.72
2023-05-21T23:39:32.390Z,93082.16
2023-05-21T23:42:00.959Z,93085.16
2023-05-21T23:44:29.565Z,93079.47
2023-05-21T23:46:58.126Z,93083.28
2023-05-21T23:49:26.526Z,93073.75
2023-05-21T23:51:55.386Z,93069.94
2023-05-21T23:54:23.951Z,93054.31
2023-05-21T23:56:52.540Z,93066.13
2023-05-21T23:59:21.203Z,93060.41
